createdAt,value
2018-02-08T00:01:50.742Z,1.09
2018-02-08T00:04:18.204Z,1.06
2018-02-08T00:06:45.657Z,1.03
2018-02-08T00:09:14.037Z,1.08
2018-02-08T00:11:41.496Z,1.05
2018-02-08T00:14:08.961Z,1.11
2018-02-08T00:16:36.735Z,1.07
2018-02-08T00:19:04.197Z,1.06
2018-02-08T00:21:31.660Z,1.08
2018-02-08T00:23:59.712Z,1.02
2018-02-08T00:26:27.162Z,1.04
2018-02-08T00:28:54.623Z,1.11
2018-02-08T00:31:22.392Z,1.09
2018-02-08T00:33:49.863Z,1.04
2018-02-08T00:36:17.329Z,1.02
2018-02-08T00:38:45.094Z,1.02
2018-02-08T00:41:12.556Z,1.02
2018-02-08T00:43:40.014Z,0.98
2018-02-08T00:46:07.780Z,0.95
2018-02-08T00:48:35.328Z,0.84
2018-02-08T00:51:02.789Z,0.93
2018-02-08T00:53:31.004Z,0.93
2018-02-08T00:55:58.468Z,0.92
2018-02-08T00:58:25.922Z,0.94
2018-02-08T01:00:53.759Z,0.87
2018-02-08T01:03:21.242Z,0.91
2018-02-08T01:05:48.693Z,0.97
2018-02-08T01:08:16.465Z,0.94
2018-02-08T01:10:44.560Z,0.96
2018-02-08T01:13:12.022Z,0.97
2018-02-08T01:15:39.752Z,0.95
2018-02-08T01:18:07.209Z,0.91
2018-02-08T01:20:34.663Z,0.97
2018-02-08T01:23:02.440Z,0.98
2018-02-08T01:25:29.904Z,1.01
2018-02-08T01:27:57.373Z,0.97
2018-02-08T01:30:25.136Z,0.94
2018-02-08T01:32:52.588Z,0.97
2018-02-08T01:35:20.056Z,1.00
2018-02-08T01:37:47.817Z,0.93
2018-02-08T01:40:15.291Z,0.90
2018-02-08T01:42:42.762Z,1.00
2018-02-08T01:45:10.509Z,0.95
2018-02-08T01:47:37.965Z,0.99
2018-02-08T01:50:05.422Z,0.91
2018-02-08T01:52:33.489Z,0.99
2018-02-08T01:55:00.940Z,0.97
2018-02-08T01:57:28.393Z,0.94
2018-02-08T01:59:56.184Z,0.93
2018-02-08T02:02:23.647Z,0.93
2018-02-08T02:04:51.104Z,0.98
2018-02-08T02:07:18.869Z,1.05
2018-02-08T02:09:46.340Z,1.09
2018-02-08T02:12:14.165Z,1.05
2018-02-08T02:14:41.872Z,1.08
2018-02-08T02:17:09.329Z,1.02
2018-02-08T02:19:36.794Z,0.97
2018-02-08T02:22:04.552Z,0.97
2018-02-08T02:24:32.008Z,1.03
2018-02-08T02:26:59.477Z,1.00
2018-02-08T02:29:27.233Z,1.02
2018-02-08T02:31:54.702Z,1.17
2018-02-08T02:34:22.180Z,1.04
2018-02-08T02:36:49.921Z,1.04
2018-02-08T02:39:17.377Z,1.02
2018-02-08T02:41:44.836Z,1.06
2018-02-08T02:44:12.920Z,0.98
2018-02-08T02:46:40.388Z,1.03
2018-02-08T02:49:07.845Z,0.99
2018-02-08T02:51:35.620Z,0.97
2018-02-08T02:54:03.414Z,1.01
2018-02-08T02:56:30.880Z,1.09
2018-02-08T02:58:58.908Z,1.01
2018-02-08T03:01:26.369Z,1.13
2018-02-08T03:03:53.829Z,1.07
2018-02-08T03:06:21.597Z,1.13
2018-02-08T03:08:49.062Z,1.13
2018-02-08T03:11:16.532Z,1.22
2018-02-08T03:13:45.218Z,1.16
2018-02-08T03:16:12.675Z,1.15
2018-02-08T03:18:40.141Z,1.16
2018-02-08T03:21:07.850Z,1.21
2018-02-08T03:23:35.312Z,1.17
2018-02-08T03:26:02.793Z,1.27
2018-02-08T03:28:30.573Z,1.31
2018-02-08T03:31:12.926Z,1.21
2018-02-08T03:33:40.867Z,1.25
2018-02-08T03:36:08.339Z,1.17
2018-02-08T03:38:35.804Z,1.17
2018-02-08T03:41:03.549Z,1.17
2018-02-08T03:43:31.004Z,1.10
2018-02-08T03:45:58.464Z,1.11
2018-02-08T03:48:26.194Z,1.12
2018-02-08T03:50:53.659Z,1.12
2018-02-08T03:53:21.124Z,1.14
2018-02-08T03:55:48.921Z,1.16
2018-02-08T03:58:16.377Z,1.09
2018-02-08T04:00:43.840Z,1.18
2018-02-08T04:03:11.662Z,1.21
2018-02-08T04:05:39.120Z,1.20
2018-02-08T04:08:06.584Z,1.14
2018-02-08T04:10:34.597Z,1.20
2018-02-08T04:13:02.056Z,1.22
2018-02-08T04:15:32.360Z,1.31
2018-02-08T04:17:59.998Z,1.30
2018-02-08T04:20:27.460Z,1.43
2018-02-08T04:22:54.921Z,1.34
2018-02-08T04:25:22.678Z,1.24
2018-02-08T04:27:50.150Z,1.26
2018-02-08T04:30:17.612Z,1.28
2018-02-08T04:32:45.434Z,1.31
2018-02-08T04:35:12.897Z,1.31
2018-02-08T04:37:40.356Z,1.30
2018-02-08T04:43:38.553Z,1.26
2018-02-08T04:46:17.992Z,1.39
2018-02-08T04:48:45.459Z,1.33
2018-02-08T04:51:12.929Z,1.28
2018-02-08T04:53:40.670Z,1.26
2018-02-08T04:56:08.124Z,1.21
2018-02-08T04:58:35.582Z,1.29
2018-02-08T05:01:03.677Z,1.28
2018-02-08T05:03:31.139Z,1.17
2018-02-08T05:05:58.604Z,1.26
2018-02-08T05:08:26.356Z,1.24
2018-02-08T05:10:53.824Z,1.36
2018-02-08T05:13:21.280Z,1.26
2018-02-08T05:15:49.664Z,1.30
2018-02-08T05:18:17.124Z,1.31
2018-02-08T05:20:44.584Z,1.23
2018-02-08T05:23:12.345Z,1.28
2018-02-08T05:25:39.808Z,1.23
2018-02-08T05:28:07.265Z,1.30
2018-02-08T05:30:35.245Z,1.39
2018-02-08T05:33:03.392Z,1.52
2018-02-08T05:35:30.852Z,1.57
2018-02-08T05:37:58.652Z,1.55
2018-02-08T05:40:26.112Z,1.56
2018-02-08T05:42:53.573Z,1.47
2018-02-08T05:45:21.376Z,1.47
2018-02-08T05:47:48.841Z,1.44
2018-02-08T05:50:16.299Z,1.50
2018-02-08T05:52:44.077Z,1.72
2018-02-08T05:55:11.535Z,1.91
2018-02-08T05:57:39.001Z,1.67
2018-02-08T06:00:06.708Z,1.61
2018-02-08T06:02:34.168Z,1.67
2018-02-08T06:05:01.634Z,1.65
2018-02-08T06:07:29.424Z,1.59
2018-02-08T06:09:56.912Z,1.55
2018-02-08T06:12:24.365Z,1.66
2018-02-08T06:14:52.082Z,1.61
2018-02-08T06:17:20.065Z,1.55
2018-02-08T06:19:47.528Z,1.53
2018-02-08T06:22:15.205Z,1.63
2018-02-08T06:24:42.667Z,1.59
2018-02-08T06:27:10.127Z,1.56
2018-02-08T06:29:38.360Z,1.58
2018-02-08T06:32:05.829Z,1.62
2018-02-08T06:34:33.372Z,1.61
2018-02-08T06:37:01.378Z,1.61
2018-02-08T06:39:28.841Z,1.56
2018-02-08T06:41:56.309Z,1.55
2018-02-08T06:44:24.056Z,1.49
2018-02-08T06:46:51.560Z,1.48
2018-02-08T06:49:19.036Z,1.49
2018-02-08T06:51:46.758Z,1.57
2018-02-08T06:54:14.227Z,1.51
2018-02-08T06:56:41.685Z,1.55
2018-02-08T06:59:09.436Z,1.64
2018-02-08T07:01:36.905Z,1.50
2018-02-08T07:04:04.365Z,1.57
2018-02-08T07:06:32.069Z,1.65
2018-02-08T07:08:59.530Z,1.50
2018-02-08T07:11:26.990Z,1.62
2018-02-08T07:13:54.795Z,1.58
2018-02-08T07:16:22.253Z,1.58
2018-02-08T07:18:51.591Z,1.64
2018-02-08T07:21:19.338Z,1.56
2018-02-08T07:23:46.812Z,1.52
2018-02-08T07:26:14.270Z,1.67
2018-02-08T07:28:42.018Z,1.60
2018-02-08T07:31:09.472Z,1.61
2018-02-08T07:33:36.923Z,1.65
2018-02-08T07:36:05.016Z,1.73
2018-02-08T07:38:32.475Z,1.58
2018-02-08T07:40:59.942Z,1.65
2018-02-08T07:43:27.711Z,1.66
2018-02-08T07:45:55.177Z,1.63
2018-02-08T07:48:22.636Z,1.51
2018-02-08T07:50:50.428Z,1.59
2018-02-08T07:53:17.886Z,1.51
2018-02-08T07:55:45.354Z,1.51
2018-02-08T07:58:13.110Z,1.62
2018-02-08T08:00:40.580Z,1.59
2018-02-08T08:03:08.053Z,1.69
2018-02-08T08:05:35.772Z,1.73
2018-02-08T08:08:03.240Z,1.67
2018-02-08T08:10:30.733Z,1.78
2018-02-08T08:12:58.444Z,1.73
2018-02-08T08:15:25.903Z,1.75
2018-02-08T08:17:53.368Z,1.90
2018-02-08T08:20:21.797Z,1.71
2018-02-08T08:22:49.257Z,1.72
2018-02-08T08:25:16.721Z,1.81
2018-02-08T08:27:44.748Z,1.76
2018-02-08T08:30:12.210Z,1.90
2018-02-08T08:32:39.671Z,1.83
2018-02-08T08:35:07.652Z,2.02
2018-02-08T08:37:35.108Z,1.94
2018-02-08T08:40:02.573Z,2.08
2018-02-08T08:42:30.425Z,1.91
2018-02-08T08:44:57.889Z,1.97
2018-02-08T08:47:25.416Z,1.97
2018-02-08T08:49:53.368Z,1.91
2018-02-08T08:52:20.825Z,1.92
2018-02-08T08:54:48.290Z,2.01
2018-02-08T08:57:16.139Z,1.94
2018-02-08T08:59:43.580Z,2.01
2018-02-08T09:02:11.038Z,2.09
2018-02-08T09:04:39.103Z,2.13
2018-02-08T09:07:06.569Z,2.02
2018-02-08T09:09:34.037Z,2.18
2018-02-08T09:12:02.096Z,2.21
2018-02-08T09:14:29.548Z,2.06
2018-02-08T09:16:57.007Z,2.20
2018-02-08T09:19:24.800Z,2.41
2018-02-08T09:21:53.248Z,2.36
2018-02-08T09:24:20.709Z,2.17
2018-02-08T09:26:48.525Z,2.16
2018-02-08T09:29:15.976Z,2.34
2018-02-08T09:31:43.438Z,2.34
2018-02-08T09:34:11.076Z,2.67
2018-02-08T09:36:38.551Z,2.45
2018-02-08T09:39:06.004Z,2.47
2018-02-08T09:41:33.770Z,2.47
2018-02-08T09:44:01.233Z,2.37
2018-02-08T09:46:28.741Z,2.44
2018-02-08T09:48:56.449Z,2.62
2018-02-08T09:51:23.895Z,2.54
2018-02-08T09:53:51.361Z,2.65
2018-02-08T09:56:19.145Z,2.87
2018-02-08T09:58:46.609Z,2.36
2018-02-08T10:01:14.062Z,2.79
2018-02-08T10:03:42.145Z,2.79
2018-02-08T10:06:09.605Z,2.80
2018-02-08T10:08:37.065Z,2.93
2018-02-08T10:11:04.663Z,2.50
2018-02-08T10:13:32.123Z,2.34
2018-02-08T10:15:59.583Z,2.79
2018-02-08T10:18:27.517Z,2.80
2018-02-08T10:20:54.975Z,2.83
2018-02-08T10:23:22.710Z,2.74
2018-02-08T10:25:50.445Z,2.56
2018-02-08T10:28:17.903Z,2.67
2018-02-08T10:30:45.353Z,2.73
2018-02-08T10:33:13.190Z,2.78
2018-02-08T10:35:40.648Z,2.87
2018-02-08T10:38:08.107Z,2.92
2018-02-08T10:40:35.877Z,2.72
2018-02-08T10:43:03.336Z,2.92
2018-02-08T10:45:30.791Z,2.87
2018-02-08T10:47:58.565Z,2.77
2018-02-08T10:50:26.020Z,2.71
2018-02-08T10:52:53.483Z,2.58
2018-02-08T10:55:21.246Z,2.82
2018-02-08T10:57:48.700Z,2.70
2018-02-08T11:00:16.145Z,2.86
2018-02-08T11:02:44.243Z,2.81
2018-02-08T11:05:11.700Z,2.84
2018-02-08T11:07:39.161Z,2.88
2018-02-08T11:10:06.938Z,3.11
2018-02-08T11:12:34.393Z,2.87
2018-02-08T11:15:01.854Z,2.99
2018-02-08T11:17:29.621Z,3.09
2018-02-08T11:19:57.077Z,3.09
2018-02-08T11:22:24.523Z,3.30
2018-02-08T11:24:53.229Z,3.57
2018-02-08T11:27:20.679Z,3.13
2018-02-08T11:29:48.138Z,3.27
2018-02-08T11:32:16.224Z,3.16
2018-02-08T11:34:43.685Z,3.08
2018-02-08T11:37:11.169Z,3.27
2018-02-08T11:39:38.909Z,3.34
2018-02-08T11:42:06.372Z,3.63
2018-02-08T11:44:33.824Z,3.23
2018-02-08T11:47:01.585Z,3.28
2018-02-08T11:49:29.037Z,3.53
2018-02-08T11:51:56.489Z,3.77
2018-02-08T11:54:24.275Z,3.61
2018-02-08T11:56:51.725Z,3.63
2018-02-08T11:59:19.173Z,3.80
2018-02-08T12:01:46.970Z,3.95
2018-02-08T12:04:14.438Z,4.05
2018-02-08T12:06:42.612Z,4.10
2018-02-08T12:09:10.260Z,3.82
2018-02-08T12:11:37.708Z,3.95
2018-02-08T12:14:05.153Z,3.87
2018-02-08T12:16:32.885Z,3.67
2018-02-08T12:19:00.334Z,4.03
2018-02-08T12:21:27.788Z,3.96
2018-02-08T12:23:55.548Z,3.74
2018-02-08T12:26:23.622Z,3.45
2018-02-08T12:28:51.090Z,3.37
2018-02-08T12:31:18.845Z,3.48
2018-02-08T12:33:46.307Z,3.61
2018-02-08T12:36:13.764Z,3.39
2018-02-08T12:38:41.940Z,3.24
2018-02-08T12:41:09.390Z,3.29
2018-02-08T12:43:36.855Z,3.57
2018-02-08T12:46:04.630Z,3.60
2018-02-08T12:48:32.089Z,3.41
2018-02-08T12:50:59.540Z,3.45
2018-02-08T12:53:27.312Z,3.52
2018-02-08T12:55:54.757Z,3.48
2018-02-08T12:58:22.209Z,3.44
2018-02-08T13:00:49.902Z,3.52
2018-02-08T13:03:17.415Z,3.56
2018-02-08T13:05:44.874Z,3.25
2018-02-08T13:08:12.680Z,3.27
2018-02-08T13:10:40.189Z,3.18
2018-02-08T13:13:07.617Z,3.47
2018-02-08T13:15:35.453Z,3.33
2018-02-08T13:18:02.977Z,3.37
2018-02-08T13:20:30.437Z,3.28
2018-02-08T13:22:58.077Z,3.33
2018-02-08T13:25:25.530Z,3.34
2018-02-08T13:27:53.047Z,3.39
2018-02-08T13:30:21.068Z,3.32
2018-02-08T13:32:48.517Z,3.36
2018-02-08T13:35:15.975Z,3.32
2018-02-08T13:37:44.360Z,3.44
2018-02-08T13:43:16.140Z,3.45
2018-02-08T13:45:43.601Z,3.40
2018-02-08T13:48:30.994Z,3.45
2018-02-08T13:51:08.364Z,3.43
2018-02-08T13:53:41.622Z,3.37
2018-02-08T13:56:27.844Z,3.37
2018-02-08T13:59:01.111Z,3.36
2018-02-08T14:01:34.212Z,3.42
2018-02-08T14:04:01.692Z,3.13
2018-02-08T14:06:29.626Z,3.22
2018-02-08T14:08:57.329Z,3.18
2018-02-08T14:11:24.783Z,3.24
2018-02-08T14:13:52.644Z,3.05
2018-02-08T14:16:20.100Z,3.00
2018-02-08T14:18:47.593Z,2.97
2018-02-08T14:21:15.317Z,3.34
2018-02-08T14:23:42.765Z,2.98
2018-02-08T14:26:10.212Z,2.80
2018-02-08T14:28:39.550Z,2.92
2018-02-08T14:31:07.014Z,2.81
2018-02-08T14:33:34.523Z,2.91
2018-02-08T14:36:02.480Z,2.75
2018-02-08T14:38:29.940Z,2.99
2018-02-08T14:40:57.407Z,2.93
2018-02-08T14:43:25.222Z,2.84
2018-02-08T14:45:52.691Z,2.79
2018-02-08T14:48:20.139Z,2.95
2018-02-08T14:50:47.923Z,3.03
2018-02-08T14:53:15.373Z,2.99
2018-02-08T14:55:42.816Z,2.95
2018-02-08T14:58:10.591Z,2.99
2018-02-08T15:00:38.037Z,2.77
2018-02-08T15:03:05.488Z,3.05
2018-02-08T15:05:33.287Z,2.67
2018-02-08T15:08:00.750Z,2.67
2018-02-08T15:10:28.216Z,2.74
2018-02-08T15:12:56.291Z,2.63
2018-02-08T15:15:23.746Z,2.55
2018-02-08T15:17:51.201Z,2.46
2018-02-08T15:20:18.967Z,2.49
2018-02-08T15:22:46.426Z,2.57
2018-02-08T15:25:13.894Z,2.54
2018-02-08T15:27:41.644Z,2.46
2018-02-08T15:30:09.502Z,2.51
2018-02-08T15:32:36.967Z,2.32
2018-02-08T15:35:04.649Z,2.37
2018-02-08T15:37:32.101Z,2.42
2018-02-08T15:39:59.561Z,2.38
2018-02-08T15:42:27.233Z,2.40
2018-02-08T15:44:54.686Z,2.33
2018-02-08T15:47:22.137Z,2.43
2018-02-08T15:49:50.025Z,2.35
2018-02-08T15:52:17.484Z,2.38
2018-02-08T15:54:44.937Z,2.29
2018-02-08T15:57:13.014Z,2.38
2018-02-08T15:59:40.464Z,2.25
2018-02-08T16:02:07.952Z,2.31
2018-02-08T16:04:35.700Z,2.23
2018-02-08T16:07:03.145Z,2.39
2018-02-08T16:09:30.970Z,2.35
2018-02-08T16:11:58.704Z,2.38
2018-02-08T16:14:26.154Z,2.39
2018-02-08T16:16:53.681Z,2.42
2018-02-08T16:19:23.225Z,2.48
2018-02-08T16:21:50.698Z,2.17
2018-02-08T16:24:18.165Z,2.34
2018-02-08T16:26:45.917Z,2.32
2018-02-08T16:29:13.386Z,2.23
2018-02-08T16:31:43.056Z,2.19
2018-02-08T16:34:10.748Z,2.15
2018-02-08T16:36:38.208Z,2.28
2018-02-08T16:39:05.659Z,2.15
2018-02-08T16:41:33.442Z,2.16
2018-02-08T16:44:00.893Z,2.09
2018-02-08T16:46:28.360Z,2.13
2018-02-08T16:48:56.040Z,2.04
2018-02-08T16:51:23.522Z,2.08
2018-02-08T16:53:50.983Z,2.04
2018-02-08T16:56:18.825Z,2.07
2018-02-08T16:58:46.281Z,2.10
2018-02-08T17:01:13.750Z,2.06
2018-02-08T17:03:41.512Z,2.00
2018-02-08T17:06:08.968Z,2.05
2018-02-08T17:08:36.437Z,2.02
2018-02-08T17:11:04.196Z,2.01
2018-02-08T17:13:31.653Z,2.04
2018-02-08T17:15:59.153Z,1.93
2018-02-08T17:18:26.886Z,1.96
2018-02-08T17:20:54.379Z,1.99
2018-02-08T17:23:21.840Z,1.91
2018-02-08T17:25:49.808Z,1.90
2018-02-08T17:28:17.273Z,1.97
2018-02-08T17:30:44.736Z,1.82
2018-02-08T17:33:12.873Z,1.87
2018-02-08T17:35:40.336Z,1.84
2018-02-08T17:38:07.803Z,1.82
2018-02-08T17:40:36.476Z,1.85
2018-02-08T17:43:03.940Z,1.89
2018-02-08T17:45:32.609Z,1.93
2018-02-08T17:48:00.387Z,1.79
2018-02-08T17:50:27.849Z,1.80
2018-02-08T17:52:55.301Z,1.88
2018-02-08T17:55:23.066Z,1.95
2018-02-08T17:57:50.618Z,1.83
2018-02-08T18:00:18.084Z,1.85
2018-02-08T18:02:45.801Z,1.85
2018-02-08T18:05:13.261Z,1.84
2018-02-08T18:07:40.725Z,1.82
2018-02-08T18:10:09.077Z,1.78
2018-02-08T18:12:36.535Z,1.75
2018-02-08T18:15:03.993Z,1.78
2018-02-08T18:17:32.056Z,1.79
2018-02-08T18:19:59.519Z,1.69
2018-02-08T18:22:26.974Z,1.70
2018-02-08T18:24:54.740Z,1.76
2018-02-08T18:27:22.216Z,1.74
2018-02-08T18:29:49.734Z,1.78
2018-02-08T18:32:17.430Z,1.70
2018-02-08T18:34:45.280Z,1.81
2018-02-08T18:37:12.744Z,1.95
2018-02-08T18:39:40.476Z,1.95
2018-02-08T18:42:07.940Z,1.87
2018-02-08T18:44:35.404Z,1.84
2018-02-08T18:47:03.120Z,1.88
2018-02-08T18:49:30.616Z,1.84
2018-02-08T18:51:58.081Z,1.77
2018-02-08T18:54:25.847Z,1.77
2018-02-08T18:56:53.310Z,1.78
2018-02-08T18:59:20.914Z,1.80
2018-02-08T19:01:48.540Z,1.93
2018-02-08T19:04:16.032Z,1.90
2018-02-08T19:06:43.501Z,1.97
2018-02-08T19:09:11.221Z,1.88
2018-02-08T19:11:38.677Z,2.01
2018-02-08T19:14:06.150Z,2.01
2018-02-08T19:16:33.861Z,2.02
2018-02-08T19:19:01.322Z,1.97
2018-02-08T19:21:28.789Z,1.95
2018-02-08T19:23:56.724Z,1.95
2018-02-08T19:26:24.193Z,1.97
2018-02-08T19:28:51.648Z,1.95
2018-02-08T19:31:19.535Z,1.99
2018-02-08T19:33:46.997Z,1.97
2018-02-08T19:36:14.814Z,2.07
2018-02-08T19:38:42.840Z,2.02
2018-02-08T19:41:10.309Z,1.97
2018-02-08T19:43:37.771Z,1.99
2018-02-08T19:46:05.405Z,1.95
2018-02-08T19:48:32.877Z,2.02
2018-02-08T19:51:00.365Z,2.06
2018-02-08T19:53:28.209Z,1.89
2018-02-08T19:55:55.672Z,1.98
2018-02-08T19:58:23.137Z,1.98
2018-02-08T20:00:51.522Z,1.88
2018-02-08T20:03:18.989Z,1.90
2018-02-08T20:05:46.474Z,1.87
2018-02-08T20:08:14.511Z,1.81
2018-02-08T20:10:41.976Z,1.88
2018-02-08T20:13:09.464Z,1.80
2018-02-08T20:15:37.212Z,1.75
2018-02-08T20:18:04.678Z,1.73
2018-02-08T20:20:32.152Z,1.81
2018-02-08T20:22:59.889Z,1.79
2018-02-08T20:25:32.916Z,1.80
2018-02-08T20:28:00.571Z,1.69
2018-02-08T20:30:28.028Z,1.63
2018-02-08T20:32:55.516Z,1.67
2018-02-08T20:35:23.401Z,1.72
2018-02-08T20:37:51.691Z,1.60
2018-02-08T20:40:21.298Z,1.49
2018-02-08T20:42:54.520Z,1.64
2018-02-08T20:45:22.195Z,1.50
2018-02-08T20:47:49.716Z,1.51
2018-02-08T20:50:17.533Z,1.40
2018-02-08T20:52:45.697Z,1.42
2018-02-08T20:55:14.121Z,1.40
2018-02-08T20:57:42.149Z,1.41
2018-02-08T21:00:09.624Z,1.38
2018-02-08T21:02:37.089Z,1.43
2018-02-08T21:05:05.900Z,1.40
2018-02-08T21:07:33.566Z,1.42
2018-02-08T21:10:01.296Z,1.44
2018-02-08T21:12:29.066Z,1.45
2018-02-08T21:14:57.375Z,1.40
2018-02-08T21:17:24.936Z,1.54
2018-02-08T21:19:52.770Z,1.51
2018-02-08T21:22:20.236Z,1.43
2018-02-08T21:24:48.738Z,1.41
2018-02-08T21:27:16.603Z,1.45
2018-02-08T21:29:44.084Z,1.45
2018-02-08T21:32:11.556Z,1.47
2018-02-08T21:34:39.260Z,1.48
2018-02-08T21:37:06.734Z,1.39
2018-02-08T21:39:34.558Z,1.42
2018-02-08T21:42:02.622Z,1.41
2018-02-08T21:44:30.384Z,1.48
2018-02-08T21:46:57.853Z,1.44
2018-02-08T21:49:25.569Z,1.52
2018-02-08T21:51:53.073Z,1.56
2018-02-08T21:54:20.552Z,1.52
2018-02-08T21:56:48.257Z,1.52
2018-02-08T21:59:15.718Z,1.54
2018-02-08T22:01:43.182Z,1.45
2018-02-08T22:04:11.250Z,1.48
2018-02-08T22:06:38.713Z,1.56
2018-02-08T22:09:06.173Z,1.45
2018-02-08T22:11:33.923Z,1.52
2018-02-08T22:14:01.376Z,1.57
2018-02-08T22:16:28.838Z,1.55
2018-02-08T22:18:56.617Z,1.53
2018-02-08T22:21:24.077Z,1.56
2018-02-08T22:23:51.533Z,1.55
2018-02-08T22:26:19.617Z,1.60
2018-02-08T22:28:47.076Z,1.65
2018-02-08T22:31:14.540Z,1.68
2018-02-08T22:33:42.607Z,1.65
2018-02-08T22:36:10.072Z,1.66
2018-02-08T22:38:37.532Z,1.73
2018-02-08T22:41:06.216Z,1.65
2018-02-08T22:43:33.667Z,1.69
2018-02-08T22:46:01.127Z,1.72
2018-02-08T22:48:28.908Z,1.80
2018-02-08T22:50:56.366Z,1.82
2018-02-08T22:53:23.823Z,1.84
2018-02-08T22:55:51.552Z,1.93
2018-02-08T22:58:19.018Z,1.96
2018-02-08T23:00:46.476Z,1.85
2018-02-08T23:03:14.289Z,1.76
2018-02-08T23:05:41.756Z,1.94
2018-02-08T23:08:09.216Z,2.09
2018-02-08T23:10:36.936Z,2.01
2018-02-08T23:13:04.393Z,1.92
2018-02-08T23:15:31.848Z,2.04
2018-02-08T23:17:59.644Z,2.00
2018-02-08T23:20:27.104Z,1.93
2018-02-08T23:22:54.563Z,2.00
2018-02-08T23:25:22.640Z,1.95
2018-02-08T23:27:50.112Z,2.01
2018-02-08T23:30:17.562Z,1.98
2018-02-08T23:32:45.288Z,1.96
2018-02-08T23:35:12.741Z,2.01
2018-02-08T23:37:40.225Z,2.07
2018-02-08T23:40:08.021Z,1.98
2018-02-08T23:42:36.167Z,2.07
2018-02-08T23:45:03.656Z,2.10
2018-02-08T23:47:31.323Z,1.99
2018-02-08T23:49:58.788Z,1.95
2018-02-08T23:52:26.263Z,1.91
2018-02-08T23:54:53.984Z,1.83
2018-02-08T23:57:21.444Z,1.79
2018-02-08T23:59:48.903Z,1.80
